createdAt,value
2023-01-17T00:02:15.483Z,98141.44
2023-01-17T00:05:00.774Z,98147.81
2023-01-17T00:07:47.207Z,98140.88
2023-01-17T00:10:17.417Z,98138.50
2023-01-17T00:12:56.239Z,98139.50
2023-01-17T00:15:26.405Z,98130.84
2023-01-17T00:17:54.133Z,98129.34
2023-01-17T00:20:42.936Z,98140.00
2023-01-17T00:23:41.585Z,98144.59
2023-01-17T00:26:15.012Z,98136.13
2023-01-17T00:28:43.130Z,98136.13
2023-01-17T00:31:11.911Z,98133.63
2023-01-17T00:33:38.775Z,98126.69
2023-01-17T00:36:06.910Z,98128.63
2023-01-17T00:38:36.355Z,98130.53
2023-01-17T00:41:08.617Z,98125.41
2023-01-17T00:43:55.254Z,98115.13
2023-01-17T00:46:40.901Z,98121.25
2023-01-17T00:49:27.033Z,98119.56
2023-01-17T00:52:12.739Z,98124.16
2023-01-17T00:54:58.104Z,98122.50
2023-01-17T00:57:43.472Z,98117.50
2023-01-17T01:00:30.059Z,98120.13
2023-01-17T01:03:15.596Z,98120.25
2023-01-17T01:06:00.957Z,98122.03
2023-01-17T01:08:48.154Z,98123.13
2023-01-17T01:11:36.705Z,98120.66
2023-01-17T01:14:23.430Z,98120.75
2023-01-17T01:17:09.155Z,98129.66
2023-01-17T01:19:54.536Z,98122.59
2023-01-17T01:22:39.865Z,98126.19
2023-01-17T01:25:25.462Z,98121.06
2023-01-17T01:28:11.182Z,98124.78
2023-01-17T01:30:56.422Z,98121.16
2023-01-17T01:33:23.201Z,98129.31
2023-01-17T01:35:55.104Z,98118.09
2023-01-17T01:38:24.314Z,98134.84
2023-01-17T01:40:56.329Z,98134.03
2023-01-17T01:43:47.935Z,98130.69
2023-01-17T01:46:23.133Z,98123.78
2023-01-17T01:49:19.251Z,98130.97
2023-01-17T01:51:52.793Z,98142.91
2023-01-17T01:54:31.547Z,98140.53
2023-01-17T01:57:01.160Z,98138.97
2023-01-17T01:59:28.209Z,98136.25
2023-01-17T02:01:57.297Z,98131.78
2023-01-17T02:04:27.776Z,98135.41
2023-01-17T02:07:06.960Z,98140.66
2023-01-17T02:09:34.489Z,98135.41
2023-01-17T02:12:01.766Z,98132.78
2023-01-17T02:14:28.605Z,98144.25
2023-01-17T02:17:15.663Z,98149.50
2023-01-17T02:20:05.178Z,98155.72
2023-01-17T02:23:02.760Z,98153.09
2023-01-17T02:25:53.710Z,98147.84
2023-01-17T02:28:57.787Z,98149.91
2023-01-17T02:31:42.398Z,98155.03
2023-01-17T02:34:25.119Z,98147.13
2023-01-17T02:37:04.378Z,98141.19
2023-01-17T02:39:51.477Z,98149.78
2023-01-17T02:42:26.666Z,98148.13
2023-01-17T02:44:53.666Z,98140.22
2023-01-17T02:47:29.123Z,98132.34
2023-01-17T02:50:12.285Z,98130.66
2023-01-17T02:52:44.781Z,98128.97
2023-01-17T02:55:33.391Z,98120.28
2023-01-17T02:58:34.737Z,98123.59
2023-01-17T03:01:23.057Z,98131.50
2023-01-17T03:04:10.350Z,98140.22
2023-01-17T03:06:44.083Z,98140.22
2023-01-17T03:09:12.570Z,98144.50
2023-01-17T03:11:39.441Z,98142.13
2023-01-17T03:14:09.309Z,98140.34
2023-01-17T03:16:36.672Z,98139.38
2023-01-17T03:19:03.641Z,98142.13
2023-01-17T03:21:30.484Z,98149.06
2023-01-17T03:23:57.368Z,98140.47
2023-01-17T03:26:24.189Z,98148.22
2023-01-17T03:28:51.088Z,98144.75
2023-01-17T03:31:20.150Z,98138.53
2023-01-17T03:33:47.072Z,98134.22
2023-01-17T03:36:14.068Z,98142.03
2023-01-17T03:38:41.056Z,98136.06
2023-01-17T03:41:08.162Z,98132.44
2023-01-17T03:43:35.004Z,98136.75
2023-01-17T03:46:07.424Z,98135.91
2023-01-17T03:48:34.301Z,98141.19
2023-01-17T03:51:01.203Z,98146.44
2023-01-17T03:53:28.040Z,98131.59
2023-01-17T03:55:54.875Z,98133.97
2023-01-17T03:58:21.728Z,98137.59
2023-01-17T04:00:48.608Z,98140.91
2023-01-17T04:03:15.452Z,98144.41
2023-01-17T04:05:42.471Z,98140.22
2023-01-17T04:08:09.266Z,98139.13
2023-01-17T04:10:36.170Z,98138.97
2023-01-17T04:13:02.996Z,98145.34
2023-01-17T04:15:29.977Z,98140.91
2023-01-17T04:17:57.293Z,98144.25
2023-01-17T04:20:33.630Z,98139.94
2023-01-17T04:23:00.523Z,98151.19
2023-01-17T04:25:30.188Z,98154.66
2023-01-17T04:27:58.209Z,98145.19
2023-01-17T04:30:25.503Z,98143.28
2023-01-17T04:32:52.430Z,98149.41
2023-01-17T04:35:19.287Z,98153.81
2023-01-17T04:37:46.201Z,98142.47
2023-01-17T04:40:13.379Z,98155.47
2023-01-17T04:42:40.514Z,98144.84
2023-01-17T04:45:08.307Z,98145.94
2023-01-17T04:47:35.097Z,98150.09
2023-01-17T04:50:01.963Z,98148.31
2023-01-17T04:52:28.885Z,98154.38
2023-01-17T04:54:55.681Z,98148.41
2023-01-17T04:57:22.492Z,98148.16
2023-01-17T04:59:49.523Z,98158.53
2023-01-17T05:02:16.400Z,98149.00
2023-01-17T05:04:43.258Z,98142.75
2023-01-17T05:07:10.074Z,98150.66
2023-01-17T05:09:37.014Z,98147.22
2023-01-17T05:12:03.931Z,98141.78
2023-01-17T05:14:30.904Z,98141.78
2023-01-17T05:16:58.394Z,98149.69
2023-01-17T05:19:26.397Z,98147.91
2023-01-17T05:21:53.246Z,98145.13
2023-01-17T05:24:20.321Z,98139.84
2023-01-17T05:26:54.881Z,98139.06
2023-01-17T05:29:22.309Z,98147.91
2023-01-17T05:31:49.128Z,98150.38
2023-01-17T05:34:16.084Z,98153.75
2023-01-17T05:36:42.913Z,98147.50
2023-01-17T05:39:09.796Z,98146.41
2023-01-17T05:41:36.637Z,98137.94
2023-01-17T05:44:03.475Z,98146.53
2023-01-17T05:46:30.588Z,98136.00
2023-01-17T05:48:57.593Z,98141.28
2023-01-17T05:51:24.474Z,98138.66
2023-01-17T05:53:51.291Z,98129.75
2023-01-17T05:56:18.109Z,98130.75
2023-01-17T05:58:45.023Z,98127.97
2023-01-17T06:01:12.035Z,98124.50
2023-01-17T06:03:38.849Z,98129.75
2023-01-17T06:06:05.853Z,98125.47
2023-01-17T06:08:32.733Z,98123.81
2023-01-17T06:10:59.804Z,98119.97
2023-01-17T06:13:26.617Z,98116.47
2023-01-17T06:15:53.453Z,98120.50
2023-01-17T06:18:20.307Z,98118.88
2023-01-17T06:20:53.285Z,98114.63
2023-01-17T06:23:20.337Z,98115.88
2023-01-17T06:25:47.728Z,98119.78
2023-01-17T06:28:16.998Z,98121.31
2023-01-17T06:30:44.326Z,98126.59
2023-01-17T06:33:12.048Z,98126.69
2023-01-17T06:35:41.139Z,98128.31
2023-01-17T06:38:07.985Z,98132.72
2023-01-17T06:40:34.871Z,98136.34
2023-01-17T06:43:03.012Z,98135.66
2023-01-17T06:45:31.951Z,98131.78
2023-01-17T06:48:00.948Z,98133.06
2023-01-17T06:50:27.977Z,98130.28
2023-01-17T06:53:00.245Z,98133.75
2023-01-17T06:55:29.102Z,98135.97
2023-01-17T06:57:57.476Z,98136.69
2023-01-17T07:00:24.649Z,98135.00
2023-01-17T07:02:52.724Z,98136.44
2023-01-17T07:05:21.484Z,98140.28
2023-01-17T07:07:48.676Z,98141.03
2023-01-17T07:10:16.211Z,98144.31
2023-01-17T07:12:43.281Z,98140.63
2023-01-17T07:15:10.963Z,98135.78
2023-01-17T07:17:38.382Z,98139.94
2023-01-17T07:20:05.901Z,98135.25
2023-01-17T07:22:32.831Z,98140.53
2023-01-17T07:24:59.993Z,98146.34
2023-01-17T07:27:30.538Z,98138.44
2023-01-17T07:29:58.184Z,98146.06
2023-01-17T07:32:26.879Z,98133.63
2023-01-17T07:34:54.843Z,98135.84
2023-01-17T07:37:22.430Z,98135.28
2023-01-17T07:39:49.811Z,98140.47
2023-01-17T07:42:16.884Z,98146.47
2023-01-17T07:44:45.287Z,98144.50
2023-01-17T07:47:12.418Z,98140.94
2023-01-17T07:49:39.807Z,98144.50
2023-01-17T07:52:08.196Z,98144.50
2023-01-17T07:54:35.224Z,98153.38
2023-01-17T07:57:02.372Z,98151.84
2023-01-17T07:59:29.412Z,98151.00
2023-01-17T08:01:56.350Z,98141.44
2023-01-17T08:04:26.580Z,98138.81
2023-01-17T08:06:55.209Z,98142.28
2023-01-17T08:09:22.371Z,98147.66
2023-01-17T08:11:49.360Z,98153.78
2023-01-17T08:14:16.613Z,98148.78
2023-01-17T08:16:43.633Z,98151.28
2023-01-17T08:19:11.086Z,98148.66
2023-01-17T08:21:38.009Z,98153.19
2023-01-17T08:24:05.166Z,98148.66
2023-01-17T08:26:32.273Z,98156.56
2023-01-17T08:29:00.757Z,98148.78
2023-01-17T08:31:29.934Z,98147.66
2023-01-17T08:33:57.667Z,98155.56
2023-01-17T08:36:29.101Z,98150.31
2023-01-17T08:38:55.990Z,98147.66
2023-01-17T08:41:24.300Z,98160.13
2023-01-17T08:43:52.203Z,98156.66
2023-01-17T08:46:19.936Z,98154.03
2023-01-17T08:48:47.043Z,98146.28
2023-01-17T08:51:14.130Z,98159.19
2023-01-17T08:53:41.060Z,98160.13
2023-01-17T08:56:08.448Z,98167.09
2023-01-17T08:58:36.216Z,98170.66
2023-01-17T09:01:05.275Z,98168.16
2023-01-17T09:03:33.473Z,98172.59
2023-01-17T09:06:08.552Z,98164.56
2023-01-17T09:08:36.131Z,98161.94
2023-01-17T09:11:05.253Z,98163.97
2023-01-17T09:13:32.356Z,98168.72
2023-01-17T09:16:00.442Z,98169.16
2023-01-17T09:18:28.722Z,98162.69
2023-01-17T09:20:59.432Z,98172.66
2023-01-17T09:23:28.371Z,98167.88
2023-01-17T09:26:00.222Z,98171.88
2023-01-17T09:28:28.212Z,98164.69
2023-01-17T09:30:55.385Z,98173.00
2023-01-17T09:33:24.754Z,98168.47
2023-01-17T09:35:51.859Z,98180.06
2023-01-17T09:38:19.166Z,98193.94
2023-01-17T09:40:48.566Z,98194.81
2023-01-17T09:43:35.841Z,98197.47
2023-01-17T09:46:03.492Z,98191.56
2023-01-17T09:48:39.197Z,98190.06
2023-01-17T09:51:24.901Z,98188.81
2023-01-17T09:53:53.944Z,98185.91
2023-01-17T09:56:43.095Z,98191.75
2023-01-17T09:59:35.340Z,98179.16
2023-01-17T10:02:50.580Z,98168.63
2023-01-17T10:05:55.427Z,98171.69
2023-01-17T10:08:58.857Z,98163.53
2023-01-17T10:12:21.218Z,98167.69
2023-01-17T10:15:08.857Z,98169.22
2023-01-17T10:17:41.944Z,98167.13
2023-01-17T10:20:36.229Z,98166.69
2023-01-17T10:23:32.816Z,98174.44
2023-01-17T10:26:17.755Z,98171.38
2023-01-17T10:28:51.867Z,98174.16
2023-01-17T10:31:23.163Z,98170.69
2023-01-17T10:33:58.084Z,98184.44
2023-01-17T10:36:29.451Z,98180.72
2023-01-17T10:39:01.012Z,98184.19
2023-01-17T10:41:36.346Z,98183.09
2023-01-17T10:44:21.198Z,98182.81
2023-01-17T10:46:57.763Z,98181.03
2023-01-17T10:49:28.627Z,98186.16
2023-01-17T10:52:12.755Z,98185.88
2023-01-17T10:55:17.256Z,98181.97
2023-01-17T10:57:49.331Z,98177.81
2023-01-17T11:00:18.271Z,98186.41
2023-01-17T11:02:49.842Z,98182.50
2023-01-17T11:05:31.341Z,98182.75
2023-01-17T11:07:59.628Z,98174.28
2023-01-17T11:10:47.565Z,98152.78
2023-01-17T11:13:31.556Z,98157.19
2023-01-17T11:16:06.634Z,98155.81
2023-01-17T11:18:36.878Z,98160.25
2023-01-17T11:21:24.776Z,98161.63
2023-01-17T11:23:57.030Z,98165.34
2023-01-17T11:26:33.143Z,98171.47
2023-01-17T11:29:28.959Z,98170.88
2023-01-17T11:31:56.629Z,98162.28
2023-01-17T11:34:26.411Z,98162.44
2023-01-17T11:37:10.717Z,98160.06
2023-01-17T11:39:37.752Z,98164.63
2023-01-17T11:42:06.788Z,98162.09
2023-01-17T11:44:36.378Z,98151.72
2023-01-17T11:47:13.070Z,98145.72
2023-01-17T11:49:42.521Z,98146.84
2023-01-17T11:52:24.574Z,98148.50
2023-01-17T11:54:54.749Z,98147.81
2023-01-17T11:57:27.009Z,98149.59
2023-01-17T12:00:41.933Z,98149.88
2023-01-17T12:03:53.793Z,98156.22
2023-01-17T12:06:20.776Z,98157.06
2023-01-17T12:09:09.045Z,98144.16
2023-01-17T12:12:33.838Z,98148.47
2023-01-17T12:15:00.782Z,98144.16
2023-01-17T12:18:06.023Z,98138.22
2023-01-17T12:20:51.784Z,98140.31
2023-01-17T12:23:29.115Z,98133.94
2023-01-17T12:26:24.180Z,98131.91
2023-01-17T12:29:06.781Z,98132.03
2023-01-17T12:31:46.665Z,98127.94
2023-01-17T12:34:24.075Z,98122.94
2023-01-17T12:37:07.552Z,98114.78
2023-01-17T12:39:40.748Z,98117.69
2023-01-17T12:42:26.727Z,98123.53
2023-01-17T12:45:05.932Z,98125.78
2023-01-17T12:47:38.296Z,98124.66
2023-01-17T12:50:24.647Z,98119.41
2023-01-17T12:53:32.471Z,98117.22
2023-01-17T12:56:24.545Z,98117.78
2023-01-17T12:59:17.952Z,98120.00
2023-01-17T13:01:58.086Z,98114.72
2023-01-17T13:04:33.532Z,98116.00
2023-01-17T13:07:00.913Z,98115.72
2023-01-17T13:09:34.110Z,98117.00
2023-01-17T13:12:07.140Z,98109.78
2023-01-17T13:14:34.557Z,98110.09
2023-01-17T13:17:13.109Z,98100.81
2023-01-17T13:20:01.541Z,98096.94
2023-01-17T13:22:30.728Z,98092.91
2023-01-17T13:25:34.916Z,98088.59
2023-01-17T13:28:36.019Z,98091.53
2023-01-17T13:31:20.470Z,98093.50
2023-01-17T13:34:05.946Z,98083.38
2023-01-17T13:36:44.974Z,98083.78
2023-01-17T13:39:30.324Z,98089.19
2023-01-17T13:42:30.474Z,98091.28
2023-01-17T13:44:58.430Z,98097.81
2023-01-17T13:47:28.212Z,98094.06
2023-01-17T13:49:56.890Z,98093.81
2023-01-17T13:52:26.940Z,98102.41
2023-01-17T13:54:55.500Z,98101.47
2023-01-17T13:57:40.335Z,98104.78
2023-01-17T14:00:16.721Z,98105.47
2023-01-17T14:02:46.386Z,98090.59
2023-01-17T14:05:17.856Z,98084.09
2023-01-17T14:08:06.219Z,98083.66
2023-01-17T14:10:41.867Z,98086.88
2023-01-17T14:13:36.511Z,98101.28
2023-01-17T14:16:08.696Z,98098.22
2023-01-17T14:18:43.039Z,98106.53
2023-01-17T14:21:35.882Z,98103.47
2023-01-17T14:24:15.503Z,98111.00
2023-01-17T14:27:13.962Z,98108.75
2023-01-17T14:29:51.564Z,98108.03
2023-01-17T14:32:25.088Z,98107.47
2023-01-17T14:34:53.674Z,98102.31
2023-01-17T14:37:43.791Z,98101.72
2023-01-17T14:40:24.654Z,98106.88
2023-01-17T14:43:02.383Z,98104.22
2023-01-17T14:45:32.144Z,98105.47
2023-01-17T14:48:01.903Z,98104.91
2023-01-17T14:50:37.351Z,98111.69
2023-01-17T14:53:14.612Z,98107.78
2023-01-17T14:55:47.928Z,98108.34
2023-01-17T14:58:27.595Z,98114.13
2023-01-17T15:01:20.147Z,98115.81
2023-01-17T15:03:56.889Z,98116.38
2023-01-17T15:06:28.634Z,98122.16
2023-01-17T15:08:56.491Z,98114.41
2023-01-17T15:11:28.236Z,98114.13
2023-01-17T15:13:59.489Z,98122.72
2023-01-17T15:16:34.781Z,98120.19
2023-01-17T15:19:03.903Z,98117.63
2023-01-17T15:21:37.409Z,98119.59
2023-01-17T15:24:09.096Z,98105.88
2023-01-17T15:26:43.006Z,98116.78
2023-01-17T15:29:19.727Z,98119.16
2023-01-17T15:31:54.646Z,98112.47
2023-01-17T15:34:37.841Z,98114.25
2023-01-17T15:37:22.148Z,98110.34
2023-01-17T15:39:53.913Z,98112.84
2023-01-17T15:42:31.980Z,98108.25
2023-01-17T15:45:06.728Z,98105.31
2023-01-17T15:47:40.609Z,98094.47
2023-01-17T15:50:25.665Z,98090.88
2023-01-17T15:53:06.521Z,98097.28
2023-01-17T15:55:40.473Z,98086.72
2023-01-17T15:58:29.718Z,98094.47
2023-01-17T16:00:58.249Z,98096.44
2023-01-17T16:03:31.218Z,98100.19
2023-01-17T16:06:01.379Z,98104.53
2023-01-17T16:08:30.795Z,98103.72
2023-01-17T16:11:02.676Z,98102.31
2023-01-17T16:13:32.532Z,98105.81
2023-01-17T16:16:13.237Z,98095.53
2023-01-17T16:18:41.287Z,98099.16
2023-01-17T16:21:21.290Z,98096.38
2023-01-17T16:23:48.777Z,98107.88
2023-01-17T16:26:16.474Z,98104.28
2023-01-17T16:28:44.690Z,98093.28
2023-01-17T16:31:12.321Z,98090.75
2023-01-17T16:33:40.055Z,98087.31
2023-01-17T16:36:12.072Z,98086.19
2023-01-17T16:38:39.472Z,98079.09
2023-01-17T16:41:06.647Z,98078.28
2023-01-17T16:43:34.752Z,98076.28
2023-01-17T16:46:02.053Z,98086.09
2023-01-17T16:48:29.769Z,98089.41
2023-01-17T16:50:56.938Z,98090.47
2023-01-17T16:53:27.570Z,98087.41
2023-01-17T16:56:00.219Z,98092.25
2023-01-17T16:58:29.418Z,98082.94
2023-01-17T17:00:56.984Z,98087.94
2023-01-17T17:03:24.580Z,98080.84
2023-01-17T17:05:58.081Z,98076.22
2023-01-17T17:08:25.894Z,98092.09
2023-01-17T17:10:53.097Z,98086.50
2023-01-17T17:13:20.621Z,98092.47
2023-01-17T17:15:47.807Z,98091.34
2023-01-17T17:18:17.720Z,98083.97
2023-01-17T17:20:45.676Z,98099.50
2023-01-17T17:23:12.635Z,98100.44
2023-01-17T17:25:39.857Z,98103.91
2023-01-17T17:28:07.214Z,98098.63
2023-01-17T17:30:35.270Z,98100.44
2023-01-17T17:33:04.835Z,98106.09
2023-01-17T17:35:35.034Z,98101.34
2023-01-17T17:38:02.005Z,98104.97
2023-01-17T17:40:28.973Z,98110.78
2023-01-17T17:42:56.024Z,98113.63
2023-01-17T17:45:23.176Z,98119.19
2023-01-17T17:47:50.064Z,98117.13
2023-01-17T17:50:16.959Z,98131.53
2023-01-17T17:52:44.456Z,98137.03
2023-01-17T17:55:11.653Z,98135.53
2023-01-17T17:57:38.732Z,98132.59
2023-01-17T18:00:06.362Z,98134.28
2023-01-17T18:02:33.284Z,98139.22
2023-01-17T18:05:00.329Z,98138.75
2023-01-17T18:07:27.268Z,98128.25
2023-01-17T18:09:54.311Z,98123.22
2023-01-17T18:12:21.205Z,98119.00
2023-01-17T18:14:48.113Z,98123.69
2023-01-17T18:17:16.149Z,98111.94
2023-01-17T18:19:46.369Z,98114.81
2023-01-17T18:22:13.569Z,98118.69
2023-01-17T18:24:40.685Z,98130.59
2023-01-17T18:27:10.646Z,98125.31
2023-01-17T18:29:37.724Z,98127.66
2023-01-17T18:32:04.997Z,98115.66
2023-01-17T18:34:34.102Z,98109.75
2023-01-17T18:37:01.288Z,98105.00
2023-01-17T18:39:30.309Z,98103.84
2023-01-17T18:41:58.025Z,98099.94
2023-01-17T18:44:25.617Z,98116.69
2023-01-17T18:46:58.349Z,98097.56
2023-01-17T18:49:25.541Z,98100.59
2023-01-17T18:51:52.924Z,98097.81
2023-01-17T18:54:20.748Z,98100.00
2023-01-17T18:56:48.461Z,98106.66
2023-01-17T18:59:18.656Z,98105.50
2023-01-17T19:01:46.448Z,98105.66
2023-01-17T19:04:16.554Z,98116.63
2023-01-17T19:06:47.015Z,98125.28
2023-01-17T19:09:16.171Z,98126.91
2023-01-17T19:11:45.192Z,98120.50
2023-01-17T19:14:13.107Z,98122.47
2023-01-17T19:16:42.196Z,98119.81
2023-01-17T19:19:12.557Z,98107.84
2023-01-17T19:21:39.960Z,98112.44
2023-01-17T19:24:07.393Z,98101.47
2023-01-17T19:26:37.911Z,98099.47
2023-01-17T19:29:05.514Z,98092.38
2023-01-17T19:31:36.888Z,98088.59
2023-01-17T19:34:04.036Z,98092.03
2023-01-17T19:36:36.673Z,98098.16
2023-01-17T19:39:06.860Z,98096.34
2023-01-17T19:41:36.343Z,98096.53
2023-01-17T19:44:06.836Z,98093.34
2023-01-17T19:46:35.988Z,98093.50
2023-01-17T19:49:04.943Z,98094.50
2023-01-17T19:51:31.963Z,98101.19
2023-01-17T19:54:01.615Z,98104.16
2023-01-17T19:56:29.479Z,98099.81
2023-01-17T19:59:01.681Z,98100.16
2023-01-17T20:01:32.344Z,98097.81
2023-01-17T20:04:00.624Z,98096.44
2023-01-17T20:06:30.339Z,98088.00
2023-01-17T20:08:58.158Z,98089.81
2023-01-17T20:11:26.956Z,98093.72
2023-01-17T20:13:55.892Z,98091.53
2023-01-17T20:16:24.765Z,98084.28
2023-01-17T20:18:52.599Z,98081.63
2023-01-17T20:21:22.492Z,98090.94
2023-01-17T20:23:51.084Z,98089.72
2023-01-17T20:26:21.865Z,98098.94
2023-01-17T20:28:51.803Z,98099.09
2023-01-17T20:31:24.644Z,98092.69
2023-01-17T20:33:54.607Z,98093.88
2023-01-17T20:36:23.889Z,98087.94
2023-01-17T20:38:51.456Z,98088.22
2023-01-17T20:41:19.911Z,98089.28
2023-01-17T20:43:52.742Z,98095.09
2023-01-17T20:46:21.211Z,98091.16
2023-01-17T20:48:50.099Z,98080.56
2023-01-17T20:51:17.862Z,98083.38
2023-01-17T20:53:45.942Z,98091.31
2023-01-17T20:56:17.576Z,98106.19
2023-01-17T20:58:44.488Z,98097.56
2023-01-17T21:01:14.023Z,98099.25
2023-01-17T21:03:41.123Z,98098.25
2023-01-17T21:06:10.767Z,98097.56
2023-01-17T21:08:42.443Z,98099.25
2023-01-17T21:11:11.490Z,98101.91
2023-01-17T21:13:39.658Z,98102.88
2023-01-17T21:16:08.604Z,98108.84
2023-01-17T21:18:37.006Z,98103.53
2023-01-17T21:21:06.156Z,98099.78
2023-01-17T21:23:35.098Z,98092.28
2023-01-17T21:26:02.460Z,98107.84
2023-01-17T21:28:33.215Z,98103.25
2023-01-17T21:31:00.582Z,98100.59
2023-01-17T21:33:29.759Z,98091.00
2023-01-17T21:36:08.399Z,98095.59
2023-01-17T21:38:36.084Z,98080.56
2023-01-17T21:41:03.534Z,98074.13
2023-01-17T21:43:31.206Z,98074.97
2023-01-17T21:46:03.217Z,98079.13
2023-01-17T21:48:30.585Z,98076.47
2023-01-17T21:51:04.518Z,98079.44
2023-01-17T21:53:33.407Z,98075.97
2023-01-17T21:56:20.504Z,98076.94
2023-01-17T21:58:54.504Z,98067.34
2023-01-17T22:01:26.836Z,98084.22
2023-01-17T22:03:59.436Z,98073.41
2023-01-17T22:06:32.154Z,98073.94
2023-01-17T22:08:59.911Z,98064.50
2023-01-17T22:11:27.908Z,98075.38
2023-01-17T22:13:56.336Z,98074.25
2023-01-17T22:16:25.867Z,98069.56
2023-01-17T22:18:53.382Z,98075.25
2023-01-17T22:21:23.416Z,98065.22
2023-01-17T22:23:52.624Z,98058.97
2023-01-17T22:26:22.098Z,98071.69
2023-01-17T22:28:50.225Z,98080.75
2023-01-17T22:31:22.959Z,98100.81
2023-01-17T22:33:58.832Z,98120.31
2023-01-17T22:36:26.808Z,98112.56
2023-01-17T22:38:53.884Z,98115.22
2023-01-17T22:41:23.607Z,98136.75
2023-01-17T22:43:57.061Z,98126.06
2023-01-17T22:46:28.482Z,98115.41
2023-01-17T22:48:56.567Z,98117.78
2023-01-17T22:51:26.715Z,98123.50
2023-01-17T22:53:56.323Z,98119.75
2023-01-17T22:56:26.738Z,98107.94
2023-01-17T22:58:53.925Z,98126.16
2023-01-17T23:01:26.877Z,98122.38
2023-01-17T23:03:57.225Z,98129.03
2023-01-17T23:06:28.253Z,98148.78
2023-01-17T23:08:57.619Z,98152.78
2023-01-17T23:11:44.155Z,98165.53
2023-01-17T23:14:53.933Z,98164.41
2023-01-17T23:17:41.866Z,98155.94
2023-01-17T23:20:11.598Z,98152.72
2023-01-17T23:22:38.540Z,98156.88
2023-01-17T23:25:13.616Z,98168.38
2023-01-17T23:28:03.791Z,98178.50
2023-01-17T23:30:38.324Z,98183.34
2023-01-17T23:33:08.373Z,98188.47
2023-01-17T23:35:41.641Z,98195.53
2023-01-17T23:38:27.043Z,98185.25
2023-01-17T23:41:17.934Z,98189.28
2023-01-17T23:43:45.184Z,98192.97
2023-01-17T23:46:13.121Z,98184.38
2023-01-17T23:48:39.982Z,98189.09
2023-01-17T23:51:09.644Z,98187.69
2023-01-17T23:53:38.217Z,98185.47
2023-01-17T23:56:17.867Z,98179.34
2023-01-17T23:58:45.109Z,98189.47
